Time;durP1;ratioP1;P1;durP2;ratioP2;P2;SDS_P1;SDS_P2;PMS_P1;PMS_P2;Temp;Humidity;BMP_temperature;BMP_pressure;BME280_temperature;BME280_humidity;BME280_pressure;Samples;Min_cycle;Max_cycle;Signal;HPM_P1;HPM_P2
2021/07/02 00:00:32;;;;;;;6.55;5.30;;;14.40;99.90;;;;;;5053703;28;20048;-65
2021/07/02 00:02:58;;;;;;;6.88;4.70;;;14.30;99.90;;;;;;5053919;28;20021;-65
2021/07/02 00:05:23;;;;;;;8.23;5.18;;;14.30;99.90;;;;;;5053220;28;20056;-64
2021/07/02 00:07:49;;;;;;;8.75;4.93;;;14.40;99.90;;;;;;5053595;28;20068;-64
2021/07/02 00:10:14;;;;;;;6.70;4.88;;;14.40;99.90;;;;;;5052778;28;20033;-65
2021/07/02 00:12:40;;;;;;;9.63;4.63;;;14.50;99.90;;;;;;5053495;28;20025;-65
2021/07/02 00:15:07;;;;;;;7.25;5.40;;;14.50;99.90;;;;;;5052711;28;20051;-66
2021/07/02 00:17:33;;;;;;;5.88;4.82;;;14.40;99.90;;;;;;5053440;28;20056;-65
2021/07/02 00:19:59;;;;;;;6.60;5.53;;;14.50;99.90;;;;;;5053371;28;20100;-65
2021/07/02 00:22:25;;;;;;;9.07;5.35;;;14.50;99.90;;;;;;5051931;28;20029;-65
2021/07/02 00:24:50;;;;;;;7.82;5.35;;;14.50;99.90;;;;;;5053811;28;20425;-65
2021/07/02 00:27:16;;;;;;;7.85;6.03;;;14.50;99.90;;;;;;5052822;28;20061;-65
2021/07/02 00:29:42;;;;;;;10.27;5.68;;;14.50;99.90;;;;;;5053337;28;20043;-65
2021/07/02 00:32:08;;;;;;;6.88;5.28;;;14.40;99.90;;;;;;5052533;28;20048;-65
2021/07/02 00:34:34;;;;;;;8.02;5.05;;;14.40;99.90;;;;;;5052935;28;20035;-65
2021/07/02 00:37:00;;;;;;;7.95;5.70;;;14.40;99.90;;;;;;5053238;28;20033;-65
2021/07/02 00:39:25;;;;;;;7.82;5.25;;;14.30;99.90;;;;;;5052258;28;20028;-65
2021/07/02 00:41:51;;;;;;;9.65;5.38;;;14.30;99.90;;;;;;5052998;28;20036;-65
2021/07/02 00:44:16;;;;;;;8.38;5.57;;;14.20;99.90;;;;;;5052014;28;20037;-65
2021/07/02 00:46:42;;;;;;;9.45;5.82;;;14.20;99.90;;;;;;5052692;28;20040;-64
2021/07/02 00:49:09;;;;;;;8.70;5.45;;;14.20;99.90;;;;;;5052395;28;20052;-66
2021/07/02 00:51:35;;;;;;;7.90;5.70;;;14.20;99.90;;;;;;5052163;28;20360;-65
2021/07/02 00:54:01;;;;;;;7.63;5.35;;;14.20;99.90;;;;;;5052658;28;20052;-65
2021/07/02 00:56:27;;;;;;;10.60;5.95;;;14.20;99.90;;;;;;5043999;28;20111;-64
2021/07/02 00:58:53;;;;;;;6.72;5.07;;;14.20;99.90;;;;;;5052640;28;20087;-65
2021/07/02 01:01:18;;;;;;;9.45;5.50;;;14.20;99.90;;;;;;5052669;28;20104;-65
2021/07/02 01:03:46;;;;;;;9.15;5.95;;;14.20;99.90;;;;;;5052770;28;20086;-65
2021/07/02 01:06:15;;;;;;;12.35;5.55;;;14.20;99.90;;;;;;5051337;28;20107;-64
2021/07/02 01:08:41;;;;;;;8.88;6.00;;;14.20;99.90;;;;;;5052259;28;20025;-64
2021/07/02 01:11:11;;;;;;;7.82;5.10;;;14.20;99.90;;;;;;5052148;28;20025;-66
2021/07/02 01:13:37;;;;;;;8.82;5.90;;;14.20;99.90;;;;;;5052291;28;20120;-64
2021/07/02 01:16:03;;;;;;;8.93;5.38;;;14.20;99.90;;;;;;5052461;28;20033;-64
2021/07/02 01:18:29;;;;;;;8.65;5.38;;;14.20;99.90;;;;;;5051556;28;20171;-65
2021/07/02 01:20:56;;;;;;;8.68;5.97;;;14.20;99.90;;;;;;5051764;28;20462;-65
2021/07/02 01:23:22;;;;;;;7.53;5.50;;;14.20;99.90;;;;;;5051332;28;20041;-65
2021/07/02 01:25:48;;;;;;;8.50;5.68;;;14.20;99.90;;;;;;5043708;28;20086;-65
2021/07/02 01:28:16;;;;;;;8.23;5.72;;;14.20;99.90;;;;;;5051202;28;20037;-64
2021/07/02 01:30:42;;;;;;;8.30;5.90;;;14.20;99.90;;;;;;5052042;28;20474;-65
2021/07/02 01:33:12;;;;;;;8.88;6.05;;;14.20;99.90;;;;;;5051662;28;20166;-65
2021/07/02 01:35:38;;;;;;;8.25;6.07;;;14.20;99.90;;;;;;5050667;28;20119;-65
2021/07/02 01:38:04;;;;;;;7.35;5.60;;;14.20;99.90;;;;;;5051971;28;20032;-65
2021/07/02 01:40:34;;;;;;;8.52;5.53;;;14.10;99.90;;;;;;5049875;28;20132;-65
2021/07/02 01:43:00;;;;;;;8.13;5.72;;;14.10;99.90;;;;;;5051722;28;20040;-64
2021/07/02 01:45:27;;;;;;;9.43;6.63;;;14.10;99.90;;;;;;5051251;28;20041;-65
2021/07/02 01:47:53;;;;;;;8.90;6.07;;;14.10;99.90;;;;;;5051484;28;20100;-65
2021/07/02 01:50:19;;;;;;;6.93;5.65;;;14.10;99.90;;;;;;5051010;28;20024;-65
2021/07/02 01:52:45;;;;;;;6.95;5.50;;;14.10;99.90;;;;;;5051330;28;20403;-65
2021/07/02 01:55:11;;;;;;;7.38;5.60;;;14.10;99.90;;;;;;5051132;28;20437;-66
2021/07/02 01:57:37;;;;;;;10.43;6.07;;;14.10;99.90;;;;;;5051817;28;20021;-65
2021/07/02 02:00:05;;;;;;;9.18;6.20;;;14.10;99.90;;;;;;5051766;28;20032;-65
2021/07/02 02:02:32;;;;;;;13.57;5.97;;;14.10;99.90;;;;;;5049507;28;20033;-65
2021/07/02 02:04:58;;;;;;;7.22;5.75;;;14.10;99.90;;;;;;5051410;28;20036;-65
2021/07/02 02:07:24;;;;;;;8.25;6.15;;;14.00;99.90;;;;;;5050538;28;20036;-64
2021/07/02 02:09:49;;;;;;;7.25;6.22;;;14.00;99.90;;;;;;5051710;28;20021;-65
2021/07/02 02:12:15;;;;;;;6.97;5.20;;;14.00;99.90;;;;;;5050640;28;20040;-64
2021/07/02 02:14:41;;;;;;;6.40;5.40;;;14.00;99.90;;;;;;5051518;28;20534;-65
2021/07/02 02:17:07;;;;;;;7.15;5.35;;;14.00;99.90;;;;;;5051559;28;20116;-65
2021/07/02 02:19:33;;;;;;;7.30;6.00;;;14.00;99.90;;;;;;5050341;28;20121;-64
2021/07/02 02:21:59;;;;;;;7.65;5.55;;;13.90;99.90;;;;;;5051094;28;20051;-64
2021/07/02 02:24:25;;;;;;;6.85;5.38;;;13.90;99.90;;;;;;5050593;28;20537;-65
2021/07/02 02:26:51;;;;;;;6.68;5.65;;;13.90;99.90;;;;;;5051382;28;20490;-65
2021/07/02 02:29:17;;;;;;;6.30;5.28;;;13.80;99.90;;;;;;5050636;28;20036;-65
2021/07/02 02:31:42;;;;;;;6.75;5.75;;;13.80;99.90;;;;;;5051090;28;20564;-64
2021/07/02 02:34:08;;;;;;;7.50;5.68;;;13.70;99.90;;;;;;5051016;28;20032;-64
2021/07/02 02:36:34;;;;;;;10.15;6.10;;;13.70;99.90;;;;;;5050957;28;20021;-64
2021/07/02 02:38:59;;;;;;;9.40;5.75;;;13.70;99.90;;;;;;5050598;28;20059;-64
2021/07/02 02:41:25;;;;;;;7.30;6.28;;;13.70;99.90;;;;;;5050297;28;20108;-64
2021/07/02 02:43:50;;;;;;;8.43;6.10;;;13.60;99.90;;;;;;5051181;28;20025;-65
2021/07/02 02:46:16;;;;;;;8.18;6.05;;;13.50;99.90;;;;;;5050275;28;20025;-64
2021/07/02 02:48:42;;;;;;;7.30;5.45;;;13.50;99.90;;;;;;5050599;28;20029;-64
2021/07/02 02:51:08;;;;;;;7.95;5.45;;;13.50;99.90;;;;;;5050993;28;20053;-64
2021/07/02 02:53:33;;;;;;;8.75;5.95;;;13.50;99.90;;;;;;5049509;28;20049;-64
2021/07/02 02:55:59;;;;;;;10.75;6.32;;;13.50;99.90;;;;;;5051129;28;20079;-64
2021/07/02 02:58:25;;;;;;;12.68;6.20;;;13.50;99.90;;;;;;5050230;28;20087;-64
2021/07/02 03:00:50;;;;;;;8.00;5.90;;;13.50;99.90;;;;;;5051051;28;20057;-64
2021/07/02 03:03:16;;;;;;;6.90;5.38;;;13.50;99.90;;;;;;5050064;28;20040;-64
2021/07/02 03:05:42;;;;;;;6.32;5.55;;;13.50;99.90;;;;;;5051018;28;20057;-64
2021/07/02 03:08:07;;;;;;;7.10;5.68;;;13.40;99.90;;;;;;5050410;28;20033;-64
2021/07/02 03:10:33;;;;;;;7.35;5.95;;;13.40;99.90;;;;;;5050176;28;20051;-64
2021/07/02 03:13:00;;;;;;;9.68;6.63;;;13.40;99.90;;;;;;5051353;28;20082;-64
2021/07/02 03:15:26;;;;;;;12.95;6.35;;;13.40;99.90;;;;;;5054074;28;20064;-65
2021/07/02 03:17:52;;;;;;;8.35;6.30;;;13.40;99.90;;;;;;5054353;28;20051;-64
2021/07/02 03:20:18;;;;;;;8.02;6.32;;;13.30;99.90;;;;;;5053523;28;20029;-65
2021/07/02 03:22:44;;;;;;;7.28;5.70;;;13.30;99.90;;;;;;5054139;28;20067;-65
2021/07/02 03:25:11;;;;;;;7.75;5.80;;;13.30;99.90;;;;;;5054291;28;20036;-64
2021/07/02 03:27:38;;;;;;;8.50;6.38;;;13.20;99.90;;;;;;5053970;28;20041;-64
2021/07/02 03:30:07;;;;;;;8.80;6.28;;;13.20;99.90;;;;;;5054055;28;20163;-64
2021/07/02 03:32:33;;;;;;;10.05;6.53;;;13.20;99.90;;;;;;5053476;28;20072;-64
2021/07/02 03:34:59;;;;;;;7.90;6.07;;;13.20;99.90;;;;;;5053169;28;20071;-64
2021/07/02 03:37:24;;;;;;;7.97;6.38;;;13.20;99.90;;;;;;5053280;28;20055;-64
2021/07/02 03:39:50;;;;;;;8.82;6.38;;;13.20;99.90;;;;;;5054105;28;20466;-65
2021/07/02 03:42:16;;;;;;;10.23;6.30;;;13.20;99.90;;;;;;5053672;28;20033;-65
2021/07/02 03:44:42;;;;;;;10.00;6.22;;;13.20;99.90;;;;;;5054232;28;20021;-64
2021/07/02 03:47:07;;;;;;;8.38;6.05;;;13.20;99.90;;;;;;5054007;28;20462;-65
2021/07/02 03:49:33;;;;;;;10.48;7.00;;;13.20;99.90;;;;;;5053157;28;20592;-64
2021/07/02 03:51:59;;;;;;;9.85;6.20;;;13.20;99.90;;;;;;5054191;28;20028;-64
2021/07/02 03:54:25;;;;;;;8.55;6.38;;;13.20;99.90;;;;;;5052481;28;20049;-65
2021/07/02 03:59:34;;;;;;;8.52;6.85;;;13.20;99.90;;;;;;5052917;28;20685;-64
2021/07/02 04:02:00;;;;;;;8.77;6.20;;;13.20;99.90;;;;;;5053626;28;20032;-64
2021/07/02 04:04:26;;;;;;;11.07;6.95;;;13.20;99.90;;;;;;5052713;28;20104;-65
2021/07/02 04:06:51;;;;;;;9.63;6.63;;;13.20;99.90;;;;;;5053455;28;20021;-64
2021/07/02 04:09:17;;;;;;;8.95;6.05;;;13.30;99.90;;;;;;5052187;28;20025;-65
2021/07/02 04:11:43;;;;;;;8.82;6.57;;;13.30;99.90;;;;;;5054097;28;20025;-64
2021/07/02 04:14:08;;;;;;;10.32;6.95;;;13.30;99.90;;;;;;5053512;28;20036;-64
2021/07/02 04:16:34;;;;;;;7.78;6.05;;;13.40;99.90;;;;;;5052878;28;20017;-64
2021/07/02 04:19:00;;;;;;;9.15;6.50;;;13.40;99.90;;;;;;5053377;28;20036;-64
2021/07/02 04:21:26;;;;;;;8.57;6.45;;;13.50;99.90;;;;;;5052673;28;20021;-64
2021/07/02 04:23:52;;;;;;;7.40;6.05;;;13.60;99.90;;;;;;5053796;28;20025;-64
2021/07/02 04:26:17;;;;;;;10.57;6.35;;;13.70;99.90;;;;;;5051448;28;20036;-64
2021/07/02 04:28:43;;;;;;;8.25;6.45;;;13.70;99.90;;;;;;5053010;28;20033;-64
2021/07/02 04:31:09;;;;;;;9.40;6.38;;;13.80;99.90;;;;;;5052214;28;20383;-63
2021/07/02 04:33:35;;;;;;;7.72;5.85;;;13.90;99.90;;;;;;5052303;28;20031;-63
2021/07/02 04:36:00;;;;;;;8.82;6.15;;;13.90;99.90;;;;;;5053239;28;20162;-64
2021/07/02 04:38:26;;;;;;;12.10;6.50;;;14.10;99.90;;;;;;5052329;28;20025;-64
2021/07/02 04:40:52;;;;;;;8.45;5.88;;;14.10;99.90;;;;;;5052298;28;20036;-64
2021/07/02 04:43:17;;;;;;;8.25;5.88;;;14.20;99.90;;;;;;5052138;28;20052;-65
2021/07/02 04:45:43;;;;;;;6.85;5.93;;;14.20;99.90;;;;;;5052841;28;20029;-64
2021/07/02 04:48:09;;;;;;;7.50;6.18;;;14.30;99.90;;;;;;5052942;28;20021;-64
2021/07/02 04:50:35;;;;;;;8.90;6.22;;;14.40;99.90;;;;;;5052464;28;20036;-64
2021/07/02 04:53:01;;;;;;;9.15;6.43;;;14.50;99.90;;;;;;5052687;28;20159;-63
2021/07/02 04:55:27;;;;;;;9.50;6.32;;;14.60;99.90;;;;;;5052481;28;20048;-64
2021/07/02 04:57:52;;;;;;;7.60;6.47;;;14.60;99.90;;;;;;5053631;28;20420;-64
2021/07/02 05:00:18;;;;;;;8.05;6.57;;;14.80;99.90;;;;;;5051784;28;20036;-65
2021/07/02 05:02:44;;;;;;;9.82;6.00;;;14.80;99.90;;;;;;5052696;28;20033;-65
2021/07/02 05:05:10;;;;;;;8.20;5.88;;;15.00;99.90;;;;;;5052853;28;20032;-73
2021/07/02 05:07:35;;;;;;;8.00;6.20;;;15.00;99.90;;;;;;5051665;28;20025;-75
2021/07/02 05:10:02;;;;;;;9.35;6.40;;;15.20;99.90;;;;;;5051604;28;20060;-76
2021/07/02 05:12:32;;;;;;;6.85;5.28;;;15.20;99.90;;;;;;5051996;28;20048;-75
2021/07/02 05:14:59;;;;;;;8.73;6.13;;;15.30;99.90;;;;;;5053390;28;20378;-75
2021/07/02 05:17:26;;;;;;;7.70;6.15;;;15.40;99.90;;;;;;5051823;28;20075;-76
2021/07/02 05:19:52;;;;;;;8.23;6.20;;;15.40;99.90;;;;;;5053051;28;20029;-75
2021/07/02 05:22:19;;;;;;;6.88;5.70;;;15.50;99.90;;;;;;5052135;28;20047;-76
2021/07/02 05:24:46;;;;;;;7.22;6.22;;;15.50;99.90;;;;;;5052879;28;20029;-76
2021/07/02 05:27:12;;;;;;;10.90;6.55;;;15.50;99.90;;;;;;5049904;28;20112;-75
2021/07/02 05:29:38;;;;;;;6.45;5.20;;;15.50;99.90;;;;;;5050870;28;20270;-75
2021/07/02 05:32:05;;;;;;;8.18;5.88;;;15.50;99.90;;;;;;5052632;28;20037;-78
2021/07/02 05:34:31;;;;;;;8.10;5.90;;;15.50;99.90;;;;;;5052401;28;20025;-76
2021/07/02 05:36:57;;;;;;;6.82;5.68;;;15.60;99.90;;;;;;5052149;28;20458;-75
2021/07/02 05:39:23;;;;;;;7.80;6.40;;;15.70;99.90;;;;;;5051112;28;20145;-76
2021/07/02 05:41:48;;;;;;;6.82;5.65;;;15.70;99.90;;;;;;5051712;28;20355;-76
2021/07/02 05:44:14;;;;;;;6.28;5.65;;;15.80;99.90;;;;;;5056889;28;20087;-78
2021/07/02 05:46:40;;;;;;;12.68;5.60;;;15.80;99.90;;;;;;5056901;28;20289;-78
2021/07/02 05:49:06;;;;;;;8.88;5.88;;;16.00;99.90;;;;;;5057375;28;20391;-77
2021/07/02 05:51:32;;;;;;;7.00;5.72;;;16.10;99.90;;;;;;5053781;28;20072;-77
2021/07/02 05:53:58;;;;;;;7.22;5.68;;;16.30;99.90;;;;;;5051305;28;20052;-77
2021/07/02 05:56:28;;;;;;;7.40;6.10;;;16.40;99.60;;;;;;5050752;28;20086;-78
2021/07/02 05:58:54;;;;;;;;;;;16.50;99.00;;;;;;5051942;28;20033;-78
2021/07/02 06:01:20;;;;;;;13.82;6.38;;;16.60;98.50;;;;;;5051098;28;19909;-78
2021/07/02 06:03:46;;;;;;;7.13;5.53;;;16.60;98.20;;;;;;5050317;28;20103;-79
2021/07/02 06:06:11;;;;;;;6.45;5.57;;;16.70;98.10;;;;;;5051273;28;20553;-76
2021/07/02 06:08:37;;;;;;;8.02;6.18;;;16.70;97.70;;;;;;5050411;28;20029;-77
2021/07/02 06:11:02;;;;;;;8.15;5.93;;;16.80;97.70;;;;;;5051619;28;20107;-80
2021/07/02 06:13:28;;;;;;;6.13;5.15;;;16.90;97.30;;;;;;5044746;28;20124;-79
2021/07/02 06:15:54;;;;;;;6.18;5.57;;;16.90;97.00;;;;;;5050137;28;20382;-79
2021/07/02 06:18:20;;;;;;;7.00;6.30;;;17.10;96.80;;;;;;5050972;28;20025;-78
2021/07/02 06:20:46;;;;;;;6.88;5.30;;;17.20;96.90;;;;;;5050574;28;20036;-80
2021/07/02 06:23:12;;;;;;;8.25;6.00;;;17.30;95.80;;;;;;5049480;28;20041;-79
2021/07/02 06:25:37;;;;;;;6.30;5.25;;;17.40;95.70;;;;;;5050399;28;20493;-79
2021/07/02 06:28:03;;;;;;;9.90;5.63;;;17.60;95.20;;;;;;5049028;28;20040;-79
2021/07/02 06:30:28;;;;;;;6.60;5.70;;;17.60;94.90;;;;;;5050235;28;20029;-79
2021/07/02 06:32:54;;;;;;;5.78;5.18;;;17.70;94.40;;;;;;5060752;28;20024;-79
2021/07/02 06:35:20;;;;;;;8.82;6.32;;;17.80;93.80;;;;;;5071750;28;20040;-78
2021/07/02 06:37:49;;;;;;;8.25;5.93;;;18.00;93.50;;;;;;5050944;28;20033;-79
2021/07/02 06:40:17;;;;;;;7.53;5.88;;;18.10;92.90;;;;;;5049974;28;20029;-79
2021/07/02 06:42:42;;;;;;;10.80;6.63;;;18.10;92.30;;;;;;5049732;28;20032;-79
2021/07/02 06:45:11;;;;;;;8.13;6.07;;;18.30;91.40;;;;;;5050708;28;20033;-79
2021/07/02 06:47:59;;;;;;;8.95;5.22;;;18.40;90.40;;;;;;5048799;28;20458;-79
2021/07/02 06:50:30;;;;;;;8.98;6.55;;;18.50;90.70;;;;;;5056454;28;20028;-78
2021/07/02 06:52:56;;;;;;;6.65;5.95;;;18.60;90.60;;;;;;5061452;28;20036;-80
2021/07/02 06:55:22;;;;;;;6.43;5.10;;;18.80;88.70;;;;;;5054098;28;20049;-79
2021/07/02 06:57:48;;;;;;;6.25;5.57;;;18.80;87.40;;;;;;5054994;28;20021;-79
2021/07/02 07:00:17;;;;;;;9.13;5.18;;;18.90;86.00;;;;;;5054339;28;20035;-80
2021/07/02 07:02:43;;;;;;;6.35;5.35;;;19.00;83.30;;;;;;5053055;28;20039;-77
2021/07/02 07:05:09;;;;;;;7.65;5.53;;;19.00;83.60;;;;;;5055176;28;20112;-79
2021/07/02 07:07:34;;;;;;;9.95;5.63;;;19.10;81.50;;;;;;5053192;28;20470;-77
2021/07/02 07:10:00;;;;;;;5.57;4.78;;;19.20;81.70;;;;;;5054871;28;20103;-78
2021/07/02 07:12:26;;;;;;;6.00;5.40;;;19.20;80.80;;;;;;5053922;28;20037;-77
2021/07/02 07:14:51;;;;;;;7.53;5.30;;;19.30;80.40;;;;;;5053629;28;20021;-76
2021/07/02 07:17:17;;;;;;;9.70;5.82;;;19.50;81.10;;;;;;5054434;28;20053;-63
2021/07/02 07:19:43;;;;;;;7.30;5.57;;;19.70;77.60;;;;;;5052153;28;20210;-63
2021/07/02 07:22:09;;;;;;;10.02;5.60;;;19.80;76.90;;;;;;5054538;28;20029;-64
2021/07/02 07:24:35;;;;;;;6.88;4.80;;;19.70;75.40;;;;;;5053657;28;20116;-64
2021/07/02 07:27:00;;;;;;;7.18;5.22;;;19.60;75.50;;;;;;5054730;28;20021;-64
2021/07/02 07:29:26;;;;;;;6.85;5.05;;;19.50;76.10;;;;;;5054443;28;20048;-64
2021/07/02 07:31:53;;;;;;;6.60;4.90;;;19.60;76.40;;;;;;5053609;28;20033;-64
2021/07/02 07:36:56;;;;;;;6.80;5.30;;;19.90;74.30;;;;;;5055203;28;20032;-64
2021/07/02 07:39:22;;;;;;;5.45;4.47;;;20.00;73.40;;;;;;5054831;28;20029;-64
2021/07/02 07:41:48;;;;;;;7.00;5.20;;;20.30;73.10;;;;;;5054656;28;20071;-64
2021/07/02 07:44:14;;;;;;;4.55;4.15;;;20.50;73.10;;;;;;5054575;28;20033;-64
2021/07/02 07:46:40;;;;;;;7.75;4.82;;;20.50;72.60;;;;;;5053775;28;20077;-64
2021/07/02 07:49:06;;;;;;;9.55;5.00;;;20.50;71.00;;;;;;5054387;28;20029;-64
2021/07/02 07:51:34;;;;;;;8.13;4.63;;;20.30;70.50;;;;;;5053976;28;20128;-64
2021/07/02 07:54:00;;;;;;;5.78;4.28;;;20.10;70.60;;;;;;5054102;28;20144;-64
2021/07/02 07:56:26;;;;;;;8.20;5.07;;;19.90;70.60;;;;;;5053946;28;20500;-64
2021/07/02 07:58:53;;;;;;;4.93;4.38;;;19.80;71.30;;;;;;5054023;28;20576;-64
2021/07/02 08:01:19;;;;;;;8.07;4.97;;;19.70;72.40;;;;;;5054508;28;20060;-64
2021/07/02 08:03:45;;;;;;;5.90;4.50;;;19.70;72.00;;;;;;5053599;28;20029;-64
2021/07/02 08:06:11;;;;;;;5.78;4.90;;;19.70;72.30;;;;;;5054730;28;20352;-64
2021/07/02 08:08:37;;;;;;;5.47;4.50;;;19.80;71.90;;;;;;5053502;28;20029;-64
2021/07/02 08:11:03;;;;;;;4.97;4.38;;;19.90;70.80;;;;;;5054236;28;20476;-64
2021/07/02 08:13:29;;;;;;;7.32;4.57;;;20.00;70.70;;;;;;5053120;28;20033;-65
2021/07/02 08:15:56;;;;;;;5.88;4.93;;;20.30;69.70;;;;;;5053889;28;20063;-64
2021/07/02 08:18:21;;;;;;;5.35;4.82;;;20.70;67.50;;;;;;5054019;28;20053;-63
2021/07/02 08:20:47;;;;;;;10.30;4.40;;;20.90;64.80;;;;;;5053295;28;20068;-63
2021/07/02 08:23:13;;;;;;;6.57;4.90;;;20.70;64.40;;;;;;5053743;28;20057;-63
2021/07/02 08:25:39;;;;;;;6.45;4.63;;;20.50;65.20;;;;;;5053079;28;20466;-64
2021/07/02 08:30:50;;;;;;;5.13;4.47;;;20.10;67.00;;;;;;5053968;28;20428;-64
2021/07/02 08:33:18;;;;;;;6.90;4.70;;;20.30;66.90;;;;;;5053766;28;20033;-64
2021/07/02 08:35:45;;;;;;;7.28;4.60;;;20.50;65.20;;;;;;5051909;28;20364;-64
2021/07/02 08:38:12;;;;;;;5.90;4.22;;;20.60;66.20;;;;;;5053636;28;20033;-64
2021/07/02 08:40:38;;;;;;;5.97;4.72;;;20.80;64.80;;;;;;5052922;28;20116;-64
2021/07/02 08:43:03;;;;;;;5.70;4.78;;;21.00;63.60;;;;;;5053345;28;20144;-64
2021/07/02 08:45:29;;;;;;;5.28;4.43;;;21.20;63.90;;;;;;5052795;28;20033;-64
2021/07/02 08:47:56;;;;;;;5.07;4.55;;;21.30;63.90;;;;;;5053649;28;20032;-64
2021/07/02 08:50:22;;;;;;;5.57;4.40;;;21.30;63.20;;;;;;5053471;28;20120;-64
2021/07/02 08:52:48;;;;;;;7.30;5.38;;;21.40;64.10;;;;;;5052793;28;20033;-64
2021/07/02 08:55:14;;;;;;;5.30;4.75;;;21.50;62.70;;;;;;5052825;28;20387;-64
2021/07/02 08:57:40;;;;;;;5.82;5.13;;;21.50;62.90;;;;;;5052556;28;20060;-64
2021/07/02 09:00:07;;;;;;;6.28;4.20;;;21.50;62.50;;;;;;5053148;28;20035;-63
2021/07/02 09:02:36;;;;;;;5.57;3.90;;;21.40;59.20;;;;;;5052455;28;20463;-64
2021/07/02 09:05:35;;;;;;;5.35;4.43;;;21.30;59.60;;;;;;5053245;28;20027;-64
2021/07/02 09:08:11;;;;;;;3.70;3.38;;;21.10;60.00;;;;;;5053209;28;20488;-64
2021/07/02 09:10:37;;;;;;;4.65;3.92;;;21.10;61.10;;;;;;5052013;28;20053;-64
2021/07/02 09:13:03;;;;;;;9.32;4.53;;;21.30;60.20;;;;;;5052396;28;20076;-64
2021/07/02 09:15:29;;;;;;;4.40;4.00;;;21.40;60.80;;;;;;5051990;28;20032;-64
2021/07/02 09:18:00;;;;;;;7.22;4.47;;;21.30;61.20;;;;;;5052908;28;20029;-64
2021/07/02 09:20:36;;;;;;;5.78;5.03;;;21.20;62.10;;;;;;5052386;28;20114;-64
2021/07/02 09:23:04;;;;;;;5.13;4.63;;;21.00;63.60;;;;;;5052617;28;20049;-64
2021/07/02 09:25:48;;;;;;;8.98;5.18;;;20.90;64.20;;;;;;5052094;28;20435;-64
2021/07/02 09:28:19;;;;;;;8.23;4.80;;;20.70;63.40;;;;;;5052875;28;20048;-64
2021/07/02 09:30:47;;;;;;;7.15;5.25;;;20.70;63.10;;;;;;5052096;28;20035;-64
2021/07/02 09:33:22;;;;;;;11.50;5.15;;;20.80;64.30;;;;;;5052465;28;20033;-64
2021/07/02 09:35:51;;;;;;;4.95;4.45;;;20.90;61.80;;;;;;5051812;28;20025;-64
2021/07/02 09:38:34;;;;;;;10.30;4.10;;;21.00;61.30;;;;;;5052639;28;20037;-64
2021/07/02 09:41:00;;;;;;;6.60;3.97;;;21.20;60.00;;;;;;5052349;28;20063;-64
2021/07/02 09:43:27;;;;;;;4.40;4.00;;;21.40;60.00;;;;;;5051756;28;20398;-65
2021/07/02 09:45:56;;;;;;;6.93;4.20;;;21.40;60.50;;;;;;5050807;28;20076;-64
2021/07/02 09:48:24;;;;;;;4.90;4.18;;;21.40;59.70;;;;;;5052174;28;20108;-64
2021/07/02 09:50:54;;;;;;;4.88;4.28;;;21.30;60.50;;;;;;5051755;28;20033;-64
2021/07/02 09:53:33;;;;;;;5.90;4.75;;;21.30;60.20;;;;;;5051965;28;20481;-64
2021/07/02 09:56:01;;;;;;;6.38;5.05;;;21.30;60.40;;;;;;5052195;28;20116;-64
2021/07/02 09:58:28;;;;;;;7.47;5.05;;;21.20;61.20;;;;;;5051554;28;20031;-64
2021/07/02 10:01:00;;;;;;;6.20;4.80;;;21.10;61.40;;;;;;5052039;28;20029;-64
2021/07/02 10:03:34;;;;;;;7.57;5.68;;;21.20;62.50;;;;;;5052360;28;20354;-64
2021/07/02 10:06:02;;;;;;;7.38;5.35;;;21.30;62.40;;;;;;5052335;28;20029;-64
2021/07/02 10:08:32;;;;;;;7.50;5.10;;;21.20;62.10;;;;;;5051648;28;20059;-64
2021/07/02 10:11:00;;;;;;;5.63;5.03;;;21.10;61.50;;;;;;5052148;28;20040;-64
2021/07/02 10:13:28;;;;;;;8.93;4.90;;;20.90;61.30;;;;;;5052261;28;20029;-64
2021/07/02 10:15:56;;;;;;;6.72;5.28;;;20.90;62.20;;;;;;5052035;28;20021;-64
2021/07/02 10:18:24;;;;;;;5.40;4.88;;;21.00;62.40;;;;;;5052104;28;20374;-64
2021/07/02 10:20:51;;;;;;;6.03;4.70;;;21.30;61.50;;;;;;5051196;28;20048;-64
2021/07/02 10:23:32;;;;;;;6.03;4.45;;;21.60;60.30;;;;;;5050958;28;20135;-64
2021/07/02 10:25:58;;;;;;;6.40;4.93;;;21.90;60.10;;;;;;5051368;28;20439;-64
2021/07/02 10:28:26;;;;;;;11.38;6.03;;;21.90;59.80;;;;;;5051711;28;20029;-64
2021/07/02 10:30:52;;;;;;;7.80;5.20;;;21.80;60.10;;;;;;5051008;28;20082;-64
2021/07/02 10:33:20;;;;;;;7.68;5.72;;;21.80;59.60;;;;;;5051701;28;20115;-64
2021/07/02 10:35:58;;;;;;;5.68;4.30;;;21.90;60.10;;;;;;5051266;28;20021;-64
2021/07/02 10:38:32;;;;;;;4.43;3.97;;;22.00;53.90;;;;;;5051982;28;20044;-64
2021/07/02 10:41:11;;;;;;;5.03;4.53;;;22.20;56.60;;;;;;5051594;28;20498;-64
2021/07/02 10:43:37;;;;;;;6.07;4.35;;;22.50;55.90;;;;;;5051084;28;20381;-64
2021/07/02 10:46:17;;;;;;;5.90;4.90;;;22.80;55.10;;;;;;5052192;28;20251;-64
2021/07/02 10:49:09;;;;;;;5.70;4.80;;;22.90;55.30;;;;;;5051169;28;20378;-64
2021/07/02 10:51:35;;;;;;;5.93;5.20;;;22.90;54.80;;;;;;5051069;28;20368;-64
2021/07/02 10:54:13;;;;;;;9.73;4.93;;;22.70;55.90;;;;;;5051490;28;20053;-64
2021/07/02 10:56:44;;;;;;;4.70;4.20;;;22.70;56.60;;;;;;5050598;28;20112;-64
2021/07/02 10:59:13;;;;;;;5.25;4.40;;;22.80;54.60;;;;;;5051916;28;20066;-64
2021/07/02 11:02:10;;;;;;;5.55;4.60;;;23.00;53.90;;;;;;5050938;28;20459;-64
2021/07/02 11:04:45;;;;;;;5.40;4.50;;;22.80;53.70;;;;;;5050990;28;20120;-64
2021/07/02 11:07:23;;;;;;;5.95;4.60;;;22.60;54.10;;;;;;5051677;28;20029;-64
2021/07/02 11:09:48;;;;;;;7.85;4.68;;;22.80;53.90;;;;;;5031162;28;20573;-64
2021/07/02 11:12:31;;;;;;;6.57;4.55;;;22.80;54.00;;;;;;5031644;28;20442;-64
2021/07/02 11:15:10;;;;;;;5.95;4.50;;;22.80;54.30;;;;;;5031888;28;20027;-64
2021/07/02 11:17:47;;;;;;;5.82;4.40;;;22.90;54.30;;;;;;5030946;28;20033;-64
2021/07/02 11:20:17;;;;;;;6.93;4.53;;;23.00;53.60;;;;;;5031312;28;20033;-64
2021/07/02 11:22:46;;;;;;;8.02;4.95;;;23.20;54.00;;;;;;5030863;28;20084;-64
2021/07/02 11:25:21;;;;;;;5.82;4.40;;;23.50;54.40;;;;;;5031588;28;20065;-64
2021/07/02 11:27:54;;;;;;;6.82;4.75;;;23.50;50.80;;;;;;5031103;28;20026;-64
2021/07/02 11:30:36;;;;;;;7.32;4.47;;;23.40;53.00;;;;;;5031530;28;20021;-64
2021/07/02 11:33:08;;;;;;;6.95;4.47;;;23.50;51.70;;;;;;5031452;28;20113;-64
2021/07/02 11:35:38;;;;;;;7.13;5.00;;;23.80;51.70;;;;;;5033572;28;20038;-64
2021/07/02 11:38:14;;;;;;;5.40;4.85;;;23.80;50.30;;;;;;5034930;28;20022;-63
2021/07/02 11:40:50;;;;;;;7.13;4.63;;;23.60;50.50;;;;;;5034205;28;20040;-63
2021/07/02 11:43:20;;;;;;;4.50;4.10;;;23.20;50.80;;;;;;5041004;28;20125;-63
2021/07/02 11:45:56;;;;;;;5.47;4.68;;;22.90;53.00;;;;;;5054278;28;20025;-63
2021/07/02 11:48:25;;;;;;;7.18;4.60;;;22.90;52.70;;;;;;5054678;28;20039;-63
2021/07/02 11:51:04;;;;;;;8.23;4.70;;;23.20;51.80;;;;;;5054086;28;20035;-63
2021/07/02 11:53:41;;;;;;;7.45;5.05;;;23.50;52.30;;;;;;5054487;28;20120;-63
2021/07/02 11:56:18;;;;;;;7.15;4.88;;;23.70;52.50;;;;;;5054640;28;20083;-63
2021/07/02 11:58:58;;;;;;;7.60;4.60;;;24.00;52.40;;;;;;5054044;28;20029;-63
2021/07/02 12:01:40;;;;;;;8.45;4.57;;;24.00;51.70;;;;;;5054567;28;20466;-63
2021/07/02 12:04:20;;;;;;;9.65;4.78;;;24.10;51.00;;;;;;5054811;28;20051;-63
2021/07/02 12:06:51;;;;;;;5.50;4.88;;;24.40;51.40;;;;;;5054077;28;20036;-63
2021/07/02 12:09:18;;;;;;;5.40;4.90;;;24.70;51.20;;;;;;5054449;28;20028;-64
2021/07/02 12:11:57;;;;;;;7.00;5.80;;;25.00;49.60;;;;;;5053845;28;20020;-64
2021/07/02 12:14:25;;;;;;;7.65;5.10;;;25.20;50.50;;;;;;5054022;28;20451;-63
2021/07/02 12:16:52;;;;;;;6.07;4.50;;;24.90;48.30;;;;;;5053626;28;20039;-62
2021/07/02 12:19:21;;;;;;;6.78;4.78;;;24.80;49.20;;;;;;5054243;28;20052;-63
2021/07/02 12:21:59;;;;;;;6.35;4.90;;;24.60;48.30;;;;;;5053232;28;20025;-63
2021/07/02 12:24:27;;;;;;;6.78;4.72;;;24.50;48.60;;;;;;5053879;28;20029;-63
2021/07/02 12:26:58;;;;;;;6.35;4.70;;;24.80;49.50;;;;;;5053492;28;20052;-63
2021/07/02 12:29:26;;;;;;;5.32;4.78;;;25.30;48.80;;;;;;5054257;28;20363;-63
2021/07/02 12:32:05;;;;;;;7.25;4.65;;;25.60;47.90;;;;;;5053109;28;20243;-63
2021/07/02 12:34:48;;;;;;;5.22;4.13;;;25.20;48.30;;;;;;5053993;28;20020;-64
2021/07/02 12:37:20;;;;;;;5.03;4.40;;;25.30;48.90;;;;;;5053580;28;20060;-63
2021/07/02 12:39:51;;;;;;;5.80;5.05;;;25.50;47.80;;;;;;5053146;28;20389;-63
2021/07/02 12:42:38;;;;;;;6.80;4.78;;;25.10;47.90;;;;;;5053885;28;20068;-63
2021/07/02 12:45:06;;;;;;;5.78;4.90;;;25.00;50.60;;;;;;5053603;28;20048;-63
2021/07/02 12:47:34;;;;;;;7.00;4.75;;;25.30;49.90;;;;;;5052384;28;20107;-64
2021/07/02 12:50:05;;;;;;;6.13;4.75;;;25.70;48.50;;;;;;5053610;28;20087;-64
2021/07/02 12:55:00;;;;;;;6.03;5.10;;;26.40;46.70;;;;;;5053289;28;20052;-64
2021/07/02 12:57:31;;;;;;;6.88;4.35;;;26.50;45.40;;;;;;5053273;28;20056;-64
2021/07/02 12:59:58;;;;;;;;;;;26.50;46.30;;;;;;5052691;28;20461;-64